Time;durP1;ratioP1;P1;durP2;ratioP2;P2;SDS_P1;SDS_P2;PMS_P1;PMS_P2;Temp;Humidity;BMP_temperature;BMP_pressure;BME280_temperature;BME280_humidity;BME280_pressure;Samples;Min_cycle;Max_cycle;Signal;HPM_P1;HPM_P2
2023/01/17 00:00:02;;;;;;;;;7.00;6.00;;;;;;;;5019208;28;45355;-79
2023/01/17 00:02:29;;;;;;;;;10.75;9.00;;;;;;;;5008271;28;45263;-79
2023/01/17 00:10:24;;;;;;;;;10.25;7.00;;;;;;;;5012963;28;45166;-79
2023/01/17 00:12:51;;;;;;;;;10.00;6.75;;;;;;;;5015266;28;47831;-79
2023/01/17 00:15:18;;;;;;;;;10.75;10.75;;;;;;;;5017907;28;45162;-79
2023/01/17 00:17:44;;;;;;;;;9.00;7.50;;;;;;;;5009416;28;45477;-79
2023/01/17 01:34:52;;;;;;;;;11.50;11.50;;;;;;;;5002676;28;45194;-79
2023/01/17 01:37:17;;;;;;;;;13.25;11.25;;;;;;;;5010575;28;45419;-79
2023/01/17 01:39:42;;;;;;;;;14.00;12.50;;;;;;;;5013168;28;45385;-79
2023/01/17 01:42:13;;;;;;;;;13.50;12.00;;;;;;;;5010450;28;45395;-80
2023/01/17 01:44:46;;;;;;;;;14.00;10.00;;;;;;;;5015812;28;45296;-79
2023/01/17 01:47:14;;;;;;;;;10.75;9.00;;;;;;;;5012815;28;45254;-79
2023/01/17 01:49:39;;;;;;;;;15.00;9.75;;;;;;;;5019307;28;45586;-80
2023/01/17 01:52:05;;;;;;;;;13.75;11.50;;;;;;;;5014105;28;45375;-80
2023/01/17 01:54:35;;;;;;;;;15.25;11.25;;;;;;;;5004262;28;45349;-79
2023/01/17 01:57:02;;;;;;;;;10.00;9.00;;;;;;;;5005627;28;46378;-80
2023/01/17 01:59:29;;;;;;;;;12.00;11.00;;;;;;;;5012792;28;45430;-80
2023/01/17 02:01:55;;;;;;;;;13.00;11.00;;;;;;;;5001812;28;45383;-79
2023/01/17 02:04:21;;;;;;;;;14.00;12.00;;;;;;;;5018082;28;45465;-80
2023/01/17 02:06:49;;;;;;;;;12.75;11.00;;;;;;;;5004794;28;46391;-80
2023/01/17 02:09:15;;;;;;;;;15.75;9.50;;;;;;;;5005519;28;45289;-81
2023/01/17 02:11:41;;;;;;;;;13.00;10.00;;;;;;;;5005936;28;45419;-80
2023/01/17 02:14:06;;;;;;;;;14.00;9.75;;;;;;;;5018289;28;44899;-80
2023/01/17 02:16:34;;;;;;;;;14.00;9.75;;;;;;;;5013018;28;45325;-80
2023/01/17 02:19:24;;;;;;;;;12.25;12.25;;;;;;;;5030671;28;45341;-80
2023/01/17 02:21:49;;;;;;;;;16.25;13.25;;;;;;;;5004323;28;45249;-79
2023/01/17 02:24:26;;;;;;;;;15.75;13.25;;;;;;;;5017323;28;45224;-79
2023/01/17 02:26:54;;;;;;;;;14.00;9.75;;;;;;;;5008749;28;45483;-79
2023/01/17 02:29:19;;;;;;;;;9.75;9.50;;;;;;;;5013403;28;45340;-80
2023/01/17 02:31:48;;;;;;;;;15.25;13.50;;;;;;;;5013442;28;45498;-80
2023/01/17 02:34:17;;;;;;;;;14.75;10.75;;;;;;;;5014809;28;45059;-79
2023/01/17 02:36:48;;;;;;;;;12.75;10.50;;;;;;;;5023283;28;46641;-80
2023/01/17 02:39:16;;;;;;;;;19.25;13.00;;;;;;;;5019949;28;45198;-79
2023/01/17 02:41:44;;;;;;;;;11.50;10.75;;;;;;;;5016954;28;45352;-80
2023/01/17 02:44:10;;;;;;;;;13.50;11.50;;;;;;;;5017304;28;45308;-80
2023/01/17 02:46:45;;;;;;;;;15.50;11.25;;;;;;;;5015046;28;45527;-80
2023/01/17 02:49:11;;;;;;;;;15.50;13.25;;;;;;;;5017821;28;45384;-80
2023/01/17 02:51:55;;;;;;;;;17.25;13.25;;;;;;;;5010484;28;45541;-80
2023/01/17 02:54:31;;;;;;;;;14.25;14.25;;;;;;;;5019804;28;45679;-80
2023/01/17 02:57:12;;;;;;;;;14.75;12.50;;;;;;;;5013530;28;46364;-80
2023/01/17 02:59:40;;;;;;;;;13.75;10.25;;;;;;;;5024893;28;45345;-80
2023/01/17 03:02:09;;;;;;;;;14.00;14.00;;;;;;;;5009621;28;45247;-80
2023/01/17 03:04:47;;;;;;;;;13.75;13.00;;;;;;;;5023512;28;45262;-80
2023/01/17 03:07:16;;;;;;;;;13.75;11.50;;;;;;;;5012214;28;45417;-79
2023/01/17 03:09:44;;;;;;;;;13.25;12.25;;;;;;;;5022829;28;45233;-80
2023/01/17 03:12:10;;;;;;;;;17.25;11.50;;;;;;;;5009695;28;45491;-80
2023/01/17 03:14:35;;;;;;;;;14.00;11.00;;;;;;;;5011828;28;45202;-80
2023/01/17 03:17:00;;;;;;;;;17.50;15.00;;;;;;;;5016397;28;45339;-80
2023/01/17 03:19:26;;;;;;;;;21.00;14.00;;;;;;;;5013208;28;45156;-80
2023/01/17 03:21:51;;;;;;;;;14.25;14.00;;;;;;;;5014309;28;45220;-80
2023/01/17 03:24:16;;;;;;;;;11.00;9.75;;;;;;;;5010498;28;45182;-80
2023/01/17 03:26:43;;;;;;;;;16.25;13.50;;;;;;;;5012019;28;46704;-80
2023/01/17 03:29:09;;;;;;;;;18.00;13.75;;;;;;;;5030872;28;45350;-80
2023/01/17 03:31:34;;;;;;;;;9.25;9.25;;;;;;;;5013925;28;45455;-80
2023/01/17 03:33:59;;;;;;;;;16.50;11.75;;;;;;;;5018706;28;45302;-80
2023/01/17 03:36:24;;;;;;;;;17.25;14.50;;;;;;;;5015846;28;46010;-79
2023/01/17 03:38:49;;;;;;;;;14.00;11.00;;;;;;;;5020121;28;45263;-80
2023/01/17 03:41:15;;;;;;;;;16.75;11.75;;;;;;;;5016759;28;45294;-80
2023/01/17 03:43:40;;;;;;;;;18.75;13.00;;;;;;;;5025938;28;45930;-80
2023/01/17 03:46:06;;;;;;;;;13.25;13.00;;;;;;;;5015703;28;45452;-79
2023/01/17 03:48:32;;;;;;;;;13.00;12.00;;;;;;;;5020789;28;45445;-80
2023/01/17 03:50:58;;;;;;;;;18.75;17.00;;;;;;;;5018167;28;45276;-80
2023/01/17 03:53:23;;;;;;;;;17.50;15.75;;;;;;;;5011469;28;45739;-80
2023/01/17 03:55:48;;;;;;;;;18.00;15.75;;;;;;;;5023670;28;46187;-80
2023/01/17 03:58:14;;;;;;;;;21.75;17.25;;;;;;;;5010301;28;45197;-79
2023/01/17 04:00:39;;;;;;;;;20.25;17.00;;;;;;;;5016877;28;45371;-79
2023/01/17 04:03:04;;;;;;;;;18.00;17.50;;;;;;;;5010818;28;45337;-79
2023/01/17 04:05:30;;;;;;;;;18.00;17.00;;;;;;;;5016407;28;48366;-79
2023/01/17 04:07:55;;;;;;;;;20.75;16.50;;;;;;;;5003100;28;45292;-78
2023/01/17 04:10:20;;;;;;;;;18.25;17.75;;;;;;;;5014006;28;45288;-80
2023/01/17 04:12:45;;;;;;;;;21.00;18.75;;;;;;;;5011241;28;47108;-79
2023/01/17 04:15:11;;;;;;;;;18.00;16.75;;;;;;;;5015782;28;45296;-79
2023/01/17 04:17:36;;;;;;;;;27.75;22.00;;;;;;;;5007573;28;45421;-79
2023/01/17 04:20:01;;;;;;;;;17.75;17.25;;;;;;;;5014068;28;45280;-79
2023/01/17 04:22:27;;;;;;;;;27.25;21.25;;;;;;;;5008191;28;45956;-79
2023/01/17 04:24:52;;;;;;;;;29.00;22.00;;;;;;;;5014502;28;45548;-79
2023/01/17 04:27:17;;;;;;;;;21.25;19.00;;;;;;;;5013540;28;45348;-79
2023/01/17 04:29:43;;;;;;;;;28.75;24.50;;;;;;;;5017576;28;45489;-79
2023/01/17 04:32:08;;;;;;;;;29.25;22.25;;;;;;;;5013309;28;45347;-79
2023/01/17 04:34:34;;;;;;;;;32.75;23.50;;;;;;;;5016493;28;45522;-79
2023/01/17 04:36:59;;;;;;;;;24.00;22.00;;;;;;;;5015398;28;45426;-79
2023/01/17 04:39:24;;;;;;;;;29.25;23.00;;;;;;;;5014148;28;45320;-82
2023/01/17 04:41:50;;;;;;;;;26.25;19.25;;;;;;;;5014921;28;45442;-79
2023/01/17 04:44:15;;;;;;;;;27.25;25.25;;;;;;;;5015170;28;46075;-81
2023/01/17 04:46:40;;;;;;;;;24.00;20.00;;;;;;;;5010491;28;45312;-79
2023/01/17 04:49:05;;;;;;;;;28.25;22.25;;;;;;;;5014098;28;45245;-83
2023/01/17 04:51:30;;;;;;;;;27.50;26.75;;;;;;;;5013632;28;45855;-84
2023/01/17 04:53:56;;;;;;;;;24.00;21.75;;;;;;;;5015584;28;45358;-80
2023/01/17 04:56:21;;;;;;;;;29.50;23.00;;;;;;;;5013336;28;45354;-81
2023/01/17 04:58:46;;;;;;;;;27.00;22.25;;;;;;;;5012622;28;45402;-79
2023/01/17 05:01:11;;;;;;;;;24.00;23.50;;;;;;;;5009958;28;45384;-82
2023/01/17 05:03:37;;;;;;;;;23.00;22.00;;;;;;;;5004380;28;46198;-80
2023/01/17 05:06:02;;;;;;;;;33.25;24.75;;;;;;;;5013869;28;45255;-82
2023/01/17 05:08:27;;;;;;;;;26.75;21.00;;;;;;;;5007055;28;45192;-81
2023/01/17 05:10:52;;;;;;;;;26.50;22.50;;;;;;;;5014186;28;45482;-79
2023/01/17 05:13:18;;;;;;;;;24.75;21.75;;;;;;;;5008183;28;46972;-78
2023/01/17 05:15:44;;;;;;;;;27.50;21.25;;;;;;;;5015685;28;45225;-81
2023/01/17 05:18:13;;;;;;;;;35.50;28.75;;;;;;;;5022144;28;45247;-80
2023/01/17 05:20:38;;;;;;;;;27.50;25.25;;;;;;;;5014681;28;45327;-81
2023/01/17 05:23:03;;;;;;;;;26.50;21.25;;;;;;;;5020902;28;45461;-80
2023/01/17 05:25:30;;;;;;;;;27.00;20.50;;;;;;;;5024127;28;45541;-79
2023/01/17 05:27:56;;;;;;;;;30.75;28.25;;;;;;;;5017921;28;45310;-79
2023/01/17 05:30:21;;;;;;;;;27.75;23.75;;;;;;;;5023206;28;45325;-79
2023/01/17 05:32:53;;;;;;;;;27.00;23.75;;;;;;;;5013704;28;45384;-80
2023/01/17 05:35:19;;;;;;;;;29.75;26.25;;;;;;;;5005901;28;45385;-82
2023/01/17 05:37:48;;;;;;;;;33.75;27.25;;;;;;;;5008901;28;45486;-78
2023/01/17 05:40:21;;;;;;;;;23.00;19.25;;;;;;;;5016018;28;47064;-79
2023/01/17 05:42:46;;;;;;;;;25.50;18.00;;;;;;;;5005524;28;45435;-81
2023/01/17 05:45:15;;;;;;;;;34.50;25.00;;;;;;;;5015291;28;45307;-80
2023/01/17 05:47:40;;;;;;;;;26.50;24.00;;;;;;;;5005165;28;45207;-80
2023/01/17 05:50:06;;;;;;;;;32.25;28.25;;;;;;;;5017678;28;45482;-79
2023/01/17 05:52:31;;;;;;;;;29.50;23.75;;;;;;;;5018976;28;45436;-80
2023/01/17 05:54:56;;;;;;;;;29.50;25.25;;;;;;;;5027558;28;45305;-80
2023/01/17 05:57:21;;;;;;;;;31.00;23.75;;;;;;;;5008358;28;45287;-80
2023/01/17 05:59:47;;;;;;;;;26.25;24.00;;;;;;;;5021599;28;45284;-82
2023/01/17 06:02:12;;;;;;;;;32.25;27.00;;;;;;;;5010214;28;45454;-81
2023/01/17 06:04:37;;;;;;;;;36.50;21.00;;;;;;;;5011312;28;45189;-80
2023/01/17 06:07:02;;;;;;;;;29.25;26.50;;;;;;;;5016533;28;44840;-82
2023/01/17 06:09:27;;;;;;;;;31.00;29.25;;;;;;;;5005237;28;45321;-82
2023/01/17 06:11:53;;;;;;;;;33.00;25.00;;;;;;;;5005215;28;45221;-82
2023/01/17 06:14:19;;;;;;;;;33.50;27.25;;;;;;;;5011539;28;45380;-80
2023/01/17 06:16:46;;;;;;;;;28.75;24.75;;;;;;;;5013307;28;45321;-82
2023/01/17 06:19:11;;;;;;;;;26.75;21.50;;;;;;;;5006273;28;45361;-80
2023/01/17 06:21:37;;;;;;;;;33.25;24.75;;;;;;;;5010183;28;45432;-81
2023/01/17 06:24:02;;;;;;;;;32.75;27.00;;;;;;;;5019640;28;45291;-80
2023/01/17 06:26:27;;;;;;;;;27.50;24.50;;;;;;;;5018213;28;45418;-81
2023/01/17 06:28:52;;;;;;;;;28.25;26.50;;;;;;;;5025421;28;45180;-80
2023/01/17 06:31:17;;;;;;;;;27.75;21.75;;;;;;;;5020598;28;46572;-81
2023/01/17 06:33:43;;;;;;;;;36.50;30.50;;;;;;;;5023874;28;45418;-78
2023/01/17 06:36:08;;;;;;;;;30.75;24.50;;;;;;;;5022399;28;45444;-80
2023/01/17 06:38:33;;;;;;;;;32.25;27.75;;;;;;;;5024017;28;45514;-83
2023/01/17 06:41:02;;;;;;;;;39.75;29.50;;;;;;;;5019648;28;45253;-80
2023/01/17 06:43:31;;;;;;;;;33.25;25.50;;;;;;;;5023837;28;44789;-81
2023/01/17 06:45:56;;;;;;;;;33.75;28.50;;;;;;;;5024235;28;45245;-81
2023/01/17 06:48:21;;;;;;;;;25.50;24.00;;;;;;;;5018981;28;45325;-80
2023/01/17 06:50:48;;;;;;;;;27.25;23.50;;;;;;;;5013144;28;45539;-81
2023/01/17 06:53:13;;;;;;;;;28.00;23.00;;;;;;;;5018030;28;45256;-80
2023/01/17 06:55:39;;;;;;;;;27.25;22.25;;;;;;;;5019251;28;45501;-80
2023/01/17 06:58:04;;;;;;;;;31.75;23.75;;;;;;;;5011059;28;46262;-79
2023/01/17 07:00:30;;;;;;;;;24.50;21.50;;;;;;;;5007214;28;46156;-80
2023/01/17 07:02:55;;;;;;;;;24.00;23.50;;;;;;;;5013783;28;45245;-77
2023/01/17 07:05:20;;;;;;;;;28.50;22.50;;;;;;;;5007910;28;45196;-80
2023/01/17 07:07:45;;;;;;;;;32.00;23.25;;;;;;;;5014145;28;45284;-80
2023/01/17 07:10:12;;;;;;;;;29.25;24.00;;;;;;;;5010000;28;45522;-81
2023/01/17 07:12:37;;;;;;;;;40.00;29.50;;;;;;;;5012452;28;45410;-82
2023/01/17 07:15:02;;;;;;;;;26.00;21.75;;;;;;;;5011345;28;44965;-80
2023/01/17 07:17:28;;;;;;;;;30.00;25.75;;;;;;;;5017749;28;45880;-79
2023/01/17 07:19:53;;;;;;;;;27.75;24.25;;;;;;;;5007337;28;46579;-79
2023/01/17 07:22:18;;;;;;;;;35.00;29.00;;;;;;;;5016743;28;45347;-80
2023/01/17 07:24:43;;;;;;;;;31.50;28.75;;;;;;;;5014240;28;45288;-80
2023/01/17 07:27:08;;;;;;;;;25.50;24.25;;;;;;;;5014866;28;45480;-81
2023/01/17 07:29:34;;;;;;;;;27.50;23.25;;;;;;;;5019894;28;46284;-80
2023/01/17 07:31:59;;;;;;;;;30.25;24.75;;;;;;;;5017305;28;45491;-80
2023/01/17 07:34:24;;;;;;;;;27.25;25.50;;;;;;;;5010496;28;45332;-81
2023/01/17 07:36:49;;;;;;;;;25.50;24.50;;;;;;;;5014299;28;45749;-81
2023/01/17 07:39:15;;;;;;;;;34.50;26.00;;;;;;;;5017367;28;47750;-80
2023/01/17 07:41:41;;;;;;;;;28.50;25.25;;;;;;;;5017193;28;45360;-81
2023/01/17 07:44:07;;;;;;;;;31.75;25.50;;;;;;;;5014827;28;45327;-79
2023/01/17 07:46:33;;;;;;;;;27.75;24.25;;;;;;;;5009014;28;45352;-81
2023/01/17 07:48:58;;;;;;;;;32.00;27.75;;;;;;;;5007664;28;46445;-80
2023/01/17 07:51:23;;;;;;;;;32.25;23.75;;;;;;;;5017274;28;45312;-80
2023/01/17 07:53:48;;;;;;;;;28.25;26.00;;;;;;;;5018748;28;45252;-81
2023/01/17 07:56:13;;;;;;;;;27.75;18.75;;;;;;;;5016045;28;45283;-81
2023/01/17 07:58:39;;;;;;;;;26.50;25.25;;;;;;;;5019177;28;45374;-79
2023/01/17 08:01:08;;;;;;;;;33.00;26.75;;;;;;;;5014730;28;45388;-80
2023/01/17 08:03:38;;;;;;;;;12.75;12.25;;;;;;;;5007805;28;45471;-79
2023/01/17 08:06:04;;;;;;;;;25.00;19.75;;;;;;;;5013287;28;45774;-81
2023/01/17 08:08:29;;;;;;;;;25.00;22.25;;;;;;;;5009561;28;45268;-82
2023/01/17 08:10:54;;;;;;;;;32.00;23.50;;;;;;;;5003821;28;45318;-81
2023/01/17 08:13:20;;;;;;;;;20.00;17.00;;;;;;;;5014678;28;45320;-80
2023/01/17 08:15:49;;;;;;;;;28.00;22.75;;;;;;;;5017193;28;46086;-80
2023/01/17 08:18:15;;;;;;;;;26.00;24.50;;;;;;;;5013050;28;45359;-80
2023/01/17 08:20:41;;;;;;;;;36.50;28.50;;;;;;;;5016423;28;45307;-80
2023/01/17 08:23:07;;;;;;;;;33.00;25.50;;;;;;;;5015233;28;45338;-80
2023/01/17 08:25:34;;;;;;;;;31.75;24.50;;;;;;;;5016261;28;46341;-81
2023/01/17 08:27:59;;;;;;;;;31.00;29.00;;;;;;;;5015536;28;45370;-80
2023/01/17 08:30:24;;;;;;;;;31.25;27.00;;;;;;;;5016672;28;45196;-80
2023/01/17 08:32:50;;;;;;;;;33.75;22.00;;;;;;;;5018609;28;45280;-80
2023/01/17 08:35:15;;;;;;;;;32.25;27.00;;;;;;;;5011677;28;45527;-80
2023/01/17 08:37:40;;;;;;;;;33.50;26.75;;;;;;;;5009858;28;46827;-80
2023/01/17 08:40:06;;;;;;;;;41.25;30.50;;;;;;;;5022592;28;45363;-80
2023/01/17 08:42:38;;;;;;;;;30.25;26.50;;;;;;;;5010141;28;45182;-79
2023/01/17 08:45:04;;;;;;;;;30.75;25.50;;;;;;;;5019214;28;45513;-78
2023/01/17 08:47:30;;;;;;;;;36.50;31.75;;;;;;;;5007088;28;45249;-78
2023/01/17 08:49:57;;;;;;;;;42.75;32.75;;;;;;;;5018890;28;44849;-80
2023/01/17 08:52:23;;;;;;;;;36.75;28.50;;;;;;;;5006686;28;45386;-80
2023/01/17 08:54:48;;;;;;;;;32.25;26.25;;;;;;;;5020697;28;45578;-79
2023/01/17 08:57:14;;;;;;;;;35.00;30.25;;;;;;;;5008858;28;47845;-79
2023/01/17 08:59:39;;;;;;;;;27.50;18.50;;;;;;;;5020390;28;45375;-79
2023/01/17 09:02:13;;;;;;;;;26.75;17.75;;;;;;;;5005676;28;45339;-80
2023/01/17 09:04:39;;;;;;;;;35.75;30.50;;;;;;;;5017456;28;45492;-83
2023/01/17 09:07:06;;;;;;;;;40.25;32.25;;;;;;;;5010934;28;46865;-78
2023/01/17 09:09:31;;;;;;;;;31.25;21.75;;;;;;;;5007498;28;45307;-79
2023/01/17 09:11:56;;;;;;;;;31.25;26.25;;;;;;;;5011170;28;45442;-78
2023/01/17 09:14:21;;;;;;;;;42.00;26.75;;;;;;;;5010614;28;45608;-79
2023/01/17 09:16:47;;;;;;;;;25.75;20.50;;;;;;;;5012208;28;45540;-80
2023/01/17 09:19:12;;;;;;;;;39.75;31.50;;;;;;;;5025808;28;45450;-80
2023/01/17 09:21:39;;;;;;;;;31.00;29.00;;;;;;;;5020312;28;45269;-81
2023/01/17 09:24:04;;;;;;;;;33.75;25.25;;;;;;;;5012344;28;45909;-82
2023/01/17 09:26:30;;;;;;;;;37.50;28.00;;;;;;;;5018632;28;46954;-81
2023/01/17 09:28:55;;;;;;;;;36.75;31.50;;;;;;;;5015507;28;45304;-82
2023/01/17 09:31:21;;;;;;;;;29.00;23.00;;;;;;;;5014313;28;45604;-80
2023/01/17 09:33:47;;;;;;;;;32.75;27.50;;;;;;;;5008869;28;47090;-80
2023/01/17 09:36:13;;;;;;;;;42.00;33.75;;;;;;;;5010551;28;45392;-80
2023/01/17 09:38:38;;;;;;;;;44.00;30.25;;;;;;;;5005966;28;45387;-81
2023/01/17 09:41:18;;;;;;;;;29.75;24.00;;;;;;;;5011875;28;45505;-80
2023/01/17 09:43:46;;;;;;;;;32.00;27.75;;;;;;;;5015800;28;45247;-80
2023/01/17 09:46:34;;;;;;;;;22.50;15.25;;;;;;;;5013834;28;47557;-81
2023/01/17 09:49:04;;;;;;;;;35.00;27.00;;;;;;;;4996257;28;45311;-80
2023/01/17 09:51:29;;;;;;;;;34.75;30.00;;;;;;;;5007800;28;45410;-81
2023/01/17 09:53:54;;;;;;;;;26.50;23.00;;;;;;;;5013143;28;45501;-80
2023/01/17 09:56:28;;;;;;;;;24.75;23.50;;;;;;;;5007998;28;45350;-80
2023/01/17 09:59:08;;;;;;;;;33.75;23.75;;;;;;;;5010713;28;45433;-80
2023/01/17 10:01:44;;;;;;;;;33.00;28.67;;;;;;;;5017156;28;45469;-80
2023/01/17 10:04:09;;;;;;;;;28.75;25.75;;;;;;;;5013473;28;45355;-83
2023/01/17 10:06:50;;;;;;;;;29.00;22.75;;;;;;;;5014199;28;45384;-79
2023/01/17 10:09:19;;;;;;;;;25.50;21.00;;;;;;;;5013594;28;44673;-81
2023/01/17 10:11:53;;;;;;;;;27.75;25.00;;;;;;;;5020926;28;45277;-80
2023/01/17 10:14:36;;;;;;;;;24.00;22.25;;;;;;;;5024092;28;45532;-80
2023/01/17 10:17:01;;;;;;;;;31.50;28.00;;;;;;;;5019182;28;45426;-80
2023/01/17 10:19:30;;;;;;;;;29.25;24.00;;;;;;;;5018869;28;46366;-79
2023/01/17 10:21:57;;;;;;;;;31.00;25.25;;;;;;;;5019976;28;45272;-82
2023/01/17 10:24:50;;;;;;;;;24.25;18.50;;;;;;;;5025384;28;45436;-78
2023/01/17 10:27:28;;;;;;;;;26.25;21.00;;;;;;;;5013863;28;45273;-78
2023/01/17 10:29:54;;;;;;;;;18.00;18.00;;;;;;;;5022075;28;45353;-81
2023/01/17 10:32:23;;;;;;;;;25.50;20.25;;;;;;;;5021305;28;45394;-82
2023/01/17 10:34:49;;;;;;;;;26.25;19.00;;;;;;;;5021006;28;45435;-82
2023/01/17 10:37:15;;;;;;;;;22.75;18.75;;;;;;;;5020899;28;45557;-81
2023/01/17 10:39:42;;;;;;;;;21.75;17.50;;;;;;;;5008685;28;45643;-82
2023/01/17 10:42:30;;;;;;;;;22.00;20.75;;;;;;;;5007738;28;45360;-82
2023/01/17 10:45:03;;;;;;;;;27.50;21.25;;;;;;;;5011850;28;46246;-82
2023/01/17 10:47:31;;;;;;;;;26.25;24.50;;;;;;;;5007223;28;45356;-82
2023/01/17 10:49:58;;;;;;;;;21.75;21.25;;;;;;;;5015897;28;44715;-81
2023/01/17 10:52:46;;;;;;;;;20.25;19.25;;;;;;;;5007733;28;45345;-82
2023/01/17 10:55:20;;;;;;;;;25.75;21.50;;;;;;;;5020611;28;45320;-82
2023/01/17 10:57:49;;;;;;;;;30.00;24.50;;;;;;;;5010726;28;46410;-82
2023/01/17 11:00:29;;;;;;;;;29.75;22.25;;;;;;;;5012063;28;45494;-82
2023/01/17 11:02:55;;;;;;;;;31.25;24.25;;;;;;;;5006550;28;45340;-82
2023/01/17 11:05:23;;;;;;;;;31.75;24.50;;;;;;;;5014092;28;45348;-82
2023/01/17 11:08:02;;;;;;;;;23.00;23.00;;;;;;;;5017212;28;47343;-82
2023/01/17 11:10:38;;;;;;;;;22.50;21.25;;;;;;;;5013072;28;45475;-83
2023/01/17 11:13:05;;;;;;;;;27.25;18.75;;;;;;;;5017808;28;45410;-82
2023/01/17 11:15:32;;;;;;;;;23.75;19.50;;;;;;;;5019859;28;45468;-82
2023/01/17 11:18:01;;;;;;;;;21.75;19.25;;;;;;;;5010868;28;46031;-82
2023/01/17 11:20:31;;;;;;;;;20.75;19.75;;;;;;;;5017171;28;45174;-82
2023/01/17 11:23:15;;;;;;;;;28.00;24.25;;;;;;;;5026057;28;45366;-82
2023/01/17 11:25:49;;;;;;;;;16.25;11.75;;;;;;;;5016445;28;46757;-82
2023/01/17 11:28:31;;;;;;;;;20.75;17.75;;;;;;;;5011464;28;46884;-82
2023/01/17 11:30:58;;;;;;;;;22.50;18.75;;;;;;;;5018154;28;45158;-82
2023/01/17 11:33:55;;;;;;;;;28.50;22.25;;;;;;;;5030462;28;45232;-83
2023/01/17 11:36:28;;;;;;;;;21.00;21.00;;;;;;;;5018421;28;45332;-82
2023/01/17 11:38:54;;;;;;;;;25.50;23.25;;;;;;;;5017076;28;46205;-82
2023/01/17 11:41:21;;;;;;;;;27.50;20.00;;;;;;;;5019823;28;45337;-82
2023/01/17 11:43:57;;;;;;;;;23.00;22.00;;;;;;;;5017447;28;45264;-82
2023/01/17 11:46:27;;;;;;;;;20.50;20.50;;;;;;;;5016102;28;45455;-82
2023/01/17 11:48:54;;;;;;;;;27.00;20.00;;;;;;;;5015263;28;46617;-82
2023/01/17 11:51:25;;;;;;;;;25.25;20.25;;;;;;;;5016147;28;45474;-82
2023/01/17 11:53:52;;;;;;;;;26.00;21.75;;;;;;;;5015709;28;45222;-82
2023/01/17 11:56:28;;;;;;;;;29.00;23.25;;;;;;;;5015917;28;46027;-82
2023/01/17 11:59:08;;;;;;;;;19.50;16.25;;;;;;;;5026209;28;46448;-81
2023/01/17 12:01:54;;;;;;;;;14.50;11.25;;;;;;;;5016671;28;44821;-82
2023/01/17 12:04:26;;;;;;;;;23.00;21.25;;;;;;;;5018994;28;45155;-81
2023/01/17 12:06:54;;;;;;;;;22.75;20.25;;;;;;;;5020446;28;45466;-82
2023/01/17 12:09:38;;;;;;;;;18.25;16.25;;;;;;;;5019458;28;47496;-83
2023/01/17 12:15:11;;;;;;;;;12.25;8.00;;;;;;;;5016301;28;45304;-82
2023/01/17 12:17:43;;;;;;;;;21.50;16.50;;;;;;;;5018045;28;45733;-82
2023/01/17 12:20:15;;;;;;;;;18.00;14.75;;;;;;;;5019420;28;45257;-82
2023/01/17 12:22:46;;;;;;;;;19.25;16.50;;;;;;;;5011213;28;45427;-81
2023/01/17 12:25:17;;;;;;;;;21.50;15.00;;;;;;;;5018293;28;45229;-82
2023/01/17 12:27:42;;;;;;;;;10.00;10.00;;;;;;;;5010738;28;45498;-82
2023/01/17 12:30:29;;;;;;;;;11.50;10.00;;;;;;;;5016479;28;45309;-82
2023/01/17 12:32:57;;;;;;;;;16.75;15.00;;;;;;;;5013406;28;45289;-82
2023/01/17 12:35:31;;;;;;;;;17.25;17.25;;;;;;;;5018706;28;45408;-82
2023/01/17 12:38:02;;;;;;;;;19.00;16.75;;;;;;;;5014568;28;45467;-82
2023/01/17 12:40:31;;;;;;;;;18.25;15.00;;;;;;;;5018142;28;45170;-82
2023/01/17 12:43:02;;;;;;;;;10.50;8.50;;;;;;;;5009397;28;45223;-82
2023/01/17 12:45:32;;;;;;;;;11.50;11.00;;;;;;;;5018216;28;45351;-82
2023/01/17 12:48:01;;;;;;;;;14.50;13.75;;;;;;;;5009235;28;45439;-83
2023/01/17 12:50:38;;;;;;;;;12.75;10.00;;;;;;;;5018121;28;45445;-82
2023/01/17 12:53:13;;;;;;;;;12.00;12.00;;;;;;;;5008721;28;45272;-83
2023/01/17 12:55:38;;;;;;;;;12.50;12.00;;;;;;;;5015935;28;45355;-82
2023/01/17 12:58:07;;;;;;;;;11.00;10.75;;;;;;;;5019041;28;45529;-83
2023/01/17 13:00:36;;;;;;;;;15.25;13.25;;;;;;;;5014858;28;46334;-83
2023/01/17 13:03:12;;;;;;;;;15.50;11.50;;;;;;;;5008546;28;45384;-83
2023/01/17 13:05:40;;;;;;;;;14.50;11.50;;;;;;;;5016204;28;44800;-83
2023/01/17 13:08:22;;;;;;;;;12.75;11.00;;;;;;;;5013770;28;45262;-83
2023/01/17 13:10:51;;;;;;;;;15.25;13.25;;;;;;;;5010950;28;45562;-83
2023/01/17 13:13:18;;;;;;;;;16.50;12.00;;;;;;;;5009398;28;45246;-82
2023/01/17 13:15:45;;;;;;;;;10.25;10.00;;;;;;;;5024626;28;45442;-83
2023/01/17 13:18:14;;;;;;;;;16.00;14.50;;;;;;;;5015738;28;45340;-83
2023/01/17 13:21:05;;;;;;;;;10.75;10.00;;;;;;;;5022976;28;45296;-83
2023/01/17 13:23:49;;;;;;;;;12.75;12.75;;;;;;;;5015071;28;45579;-82
2023/01/17 13:26:44;;;;;;;;;12.50;10.75;;;;;;;;5012017;28;45471;-82
2023/01/17 13:29:25;;;;;;;;;17.00;14.50;;;;;;;;5003254;28;45355;-84
2023/01/17 13:32:05;;;;;;;;;12.25;10.50;;;;;;;;5013566;28;45158;-82
2023/01/17 13:34:33;;;;;;;;;16.75;12.25;;;;;;;;5010591;28;45372;-83
2023/01/17 13:37:13;;;;;;;;;15.25;11.25;;;;;;;;5013331;28;45659;-84
2023/01/17 13:39:53;;;;;;;;;14.75;13.25;;;;;;;;5016885;28;45434;-82
2023/01/17 13:42:24;;;;;;;;;16.25;11.00;;;;;;;;5017587;28;47255;-82
2023/01/17 13:44:49;;;;;;;;;11.75;10.00;;;;;;;;5019545;28;45455;-83
2023/01/17 13:47:18;;;;;;;;;14.50;13.00;;;;;;;;5017444;28;45276;-84
2023/01/17 13:49:48;;;;;;;;;15.50;14.00;;;;;;;;5013657;28;45716;-83
2023/01/17 13:52:19;;;;;;;;;15.25;14.25;;;;;;;;5018383;28;44993;-82
2023/01/17 13:54:46;;;;;;;;;17.75;14.75;;;;;;;;5016576;28;45257;-83
2023/01/17 13:59:49;;;;;;;;;14.50;11.50;;;;;;;;5016363;28;45235;-83
2023/01/17 14:02:47;;;;;;;;;13.75;11.25;;;;;;;;5009252;28;46858;-83
2023/01/17 14:05:31;;;;;;;;;19.50;16.75;;;;;;;;4996187;28;45550;-84
2023/01/17 14:08:04;;;;;;;;;13.00;12.00;;;;;;;;5019159;28;45439;-82
2023/01/17 14:10:33;;;;;;;;;12.75;12.50;;;;;;;;5030812;28;45277;-82
2023/01/17 14:12:59;;;;;;;;;16.25;14.75;;;;;;;;5012334;28;46218;-83
2023/01/17 14:15:28;;;;;;;;;15.50;14.75;;;;;;;;5033491;28;45203;-83
2023/01/17 14:17:55;;;;;;;;;14.25;10.25;;;;;;;;5015836;28;45454;-83
2023/01/17 14:20:23;;;;;;;;;20.50;11.00;;;;;;;;5026050;28;45313;-83
2023/01/17 14:23:00;;;;;;;;;15.50;13.75;;;;;;;;5017288;28;47350;-83
2023/01/17 14:25:36;;;;;;;;;14.25;12.50;;;;;;;;5023581;28;45165;-83
2023/01/17 14:28:20;;;;;;;;;14.50;11.75;;;;;;;;5014580;28;45251;-83
2023/01/17 14:30:47;;;;;;;;;16.00;11.00;;;;;;;;5017248;28;45450;-83
2023/01/17 14:33:18;;;;;;;;;15.75;12.25;;;;;;;;5026054;28;46348;-83
2023/01/17 14:35:57;;;;;;;;;16.50;10.50;;;;;;;;5016469;28;45230;-82
2023/01/17 14:38:27;;;;;;;;;13.50;10.75;;;;;;;;5008667;28;45504;-82
2023/01/17 14:40:52;;;;;;;;;11.50;9.75;;;;;;;;5015558;28;45314;-83
2023/01/17 14:43:19;;;;;;;;;12.25;11.00;;;;;;;;5008832;28;46986;-84
2023/01/17 14:45:44;;;;;;;;;11.00;10.00;;;;;;;;5012436;28;45308;-83
2023/01/17 14:48:20;;;;;;;;;14.75;10.25;;;;;;;;5010132;28;45348;-83
2023/01/17 14:50:46;;;;;;;;;12.50;9.50;;;;;;;;5018045;28;45474;-84
2023/01/17 14:53:11;;;;;;;;;14.00;10.00;;;;;;;;5014716;28;45286;-83
2023/01/17 14:55:47;;;;;;;;;12.00;10.50;;;;;;;;5019829;28;45371;-83
2023/01/17 14:58:21;;;;;;;;;14.25;11.75;;;;;;;;5008346;28;45232;-83
2023/01/17 15:00:50;;;;;;;;;8.50;8.50;;;;;;;;5017304;28;46840;-83
2023/01/17 15:03:16;;;;;;;;;12.25;11.00;;;;;;;;5015263;28;45458;-83
2023/01/17 15:05:44;;;;;;;;;12.50;11.00;;;;;;;;5021123;28;45319;-83
2023/01/17 15:08:11;;;;;;;;;10.00;10.00;;;;;;;;5013032;28;45442;-83
2023/01/17 15:10:44;;;;;;;;;12.00;10.75;;;;;;;;5016194;28;45610;-83
2023/01/17 15:13:10;;;;;;;;;12.25;11.75;;;;;;;;5008277;28;45534;-83
2023/01/17 15:15:40;;;;;;;;;15.00;11.00;;;;;;;;5018389;28;45591;-83
2023/01/17 15:18:11;;;;;;;;;15.25;10.00;;;;;;;;5009774;28;45459;-83
2023/01/17 15:20:38;;;;;;;;;12.25;10.00;;;;;;;;5028157;28;46181;-83
2023/01/17 15:23:03;;;;;;;;;12.75;10.75;;;;;;;;5011204;28;45344;-82
2023/01/17 15:25:29;;;;;;;;;18.00;13.50;;;;;;;;5016492;28;45314;-82
2023/01/17 15:27:54;;;;;;;;;14.50;10.75;;;;;;;;5013432;28;45715;-82
2023/01/17 15:30:23;;;;;;;;;13.50;11.25;;;;;;;;5023116;28;45343;-82
2023/01/17 15:32:50;;;;;;;;;12.50;12.50;;;;;;;;5015596;28;46777;-83
2023/01/17 15:35:15;;;;;;;;;12.25;10.50;;;;;;;;5019925;28;44792;-83
2023/01/17 15:37:41;;;;;;;;;12.50;10.00;;;;;;;;5015104;28;44772;-83
2023/01/17 15:40:15;;;;;;;;;21.00;12.75;;;;;;;;5023290;28;45193;-84
2023/01/17 15:42:41;;;;;;;;;16.50;14.75;;;;;;;;5014147;28;45290;-84
2023/01/17 15:45:10;;;;;;;;;18.00;15.00;;;;;;;;5025183;28;45630;-84
2023/01/17 15:47:37;;;;;;;;;14.75;12.25;;;;;;;;5007692;28;45451;-82
2023/01/17 15:50:23;;;;;;;;;15.25;13.50;;;;;;;;5020925;28;45671;-83
2023/01/17 15:52:54;;;;;;;;;14.25;9.75;;;;;;;;5015334;28;46883;-83